createdAt,value
2018-12-02T02:23:43.423Z,97.50
2018-12-02T02:37:26.466Z,99.90
2018-12-02T03:50:43.498Z,99.90
2018-12-02T07:45:58.558Z,99.90
2018-12-02T10:11:21.203Z,96.90
2018-12-02T10:13:54.881Z,96.60
2018-12-02T10:16:25.555Z,96.60
2018-12-02T10:18:56.742Z,95.90
2018-12-02T10:21:29.526Z,95.00
2018-12-02T10:24:01.387Z,94.70
2018-12-02T10:26:31.843Z,94.40
2018-12-02T10:29:03.039Z,94.10
2018-12-02T10:31:38.776Z,93.70
2018-12-02T10:34:09.658Z,93.00
2018-12-02T10:36:39.374Z,93.30
2018-12-02T10:39:10.619Z,92.00
2018-12-02T10:41:41.725Z,91.80
2018-12-02T10:44:11.824Z,91.70
2018-12-02T10:46:44.075Z,92.20
2018-12-02T10:49:14.385Z,92.10
2018-12-02T10:51:50.828Z,93.20
2018-12-02T10:54:22.743Z,93.60
2018-12-02T10:56:56.214Z,92.60
2018-12-02T11:02:10.299Z,93.80
2018-12-02T11:04:41.572Z,95.50
2018-12-02T11:07:14.953Z,95.60
2018-12-02T11:09:45.965Z,97.70
2018-12-02T11:12:18.763Z,95.70
2018-12-02T11:14:54.071Z,96.30
2018-12-02T11:17:28.669Z,98.50
2018-12-02T11:20:01.415Z,98.10
2018-12-02T11:22:30.990Z,97.60
2018-12-02T11:25:05.666Z,98.10
2018-12-02T11:27:35.190Z,97.00
2018-12-02T11:30:11.247Z,95.80
2018-12-02T11:32:44.168Z,95.80
2018-12-02T11:35:18.745Z,95.20
2018-12-02T11:37:50.527Z,95.20
2018-12-02T11:40:21.825Z,94.50
2018-12-02T11:42:53.669Z,93.70
2018-12-02T11:45:23.907Z,93.80
2018-12-02T11:48:00.359Z,93.80
2018-12-02T11:50:31.431Z,93.00
2018-12-02T11:53:03.604Z,93.00
2018-12-02T11:55:34.143Z,93.70
2018-12-02T11:58:07.474Z,92.90
2018-12-02T12:00:39.578Z,92.80
2018-12-02T12:03:09.852Z,92.80
2018-12-02T12:05:40.888Z,92.40
2018-12-02T12:08:11.772Z,91.90
2018-12-02T12:10:43.050Z,93.30
2018-12-02T12:13:13.596Z,93.10
2018-12-02T12:15:45.373Z,95.10
2018-12-02T12:18:16.805Z,95.60
2018-12-02T12:20:47.733Z,96.40
2018-12-02T12:23:19.116Z,99.80
2018-12-02T12:25:50.638Z,99.90
2018-12-02T12:28:28.498Z,99.90
2018-12-02T12:31:01.796Z,99.50
2018-12-02T12:33:32.830Z,99.90
2018-12-02T12:38:38.641Z,99.90
2018-12-02T12:41:10.481Z,99.90
2018-12-02T12:43:42.772Z,99.90
2018-12-02T12:46:13.847Z,99.90
2018-12-02T12:48:43.785Z,99.90
2018-12-02T12:51:16.218Z,99.50
2018-12-02T12:53:48.458Z,99.20
2018-12-02T12:56:19.773Z,98.70
2018-12-02T12:58:49.551Z,99.90
2018-12-02T13:01:19.799Z,99.90
2018-12-02T13:03:49.518Z,99.90
2018-12-02T13:08:48.417Z,98.70
2018-12-02T13:11:21.324Z,96.60
2018-12-02T13:13:52.526Z,99.70
2018-12-02T13:16:22.831Z,99.90
2018-12-02T13:18:52.975Z,99.90
2018-12-02T13:21:22.888Z,98.20
2018-12-02T13:23:57.503Z,98.00
2018-12-02T13:26:27.605Z,99.10
2018-12-02T13:29:02.113Z,98.60
2018-12-02T13:31:33.433Z,95.00
2018-12-02T13:34:06.213Z,95.20
2018-12-02T13:36:36.543Z,94.10
2018-12-02T13:39:10.420Z,96.40
2018-12-02T13:41:44.049Z,96.40
2018-12-02T13:44:18.821Z,96.60
2018-12-02T13:46:49.303Z,95.60
2018-12-02T13:49:21.293Z,94.10
2018-12-02T13:51:51.406Z,95.80
2018-12-02T13:54:26.546Z,95.10
2018-12-02T13:56:57.798Z,93.50
2018-12-02T13:59:32.240Z,94.10
2018-12-02T14:02:04.522Z,94.60
2018-12-02T14:04:35.300Z,95.50
2018-12-02T14:07:05.814Z,95.50
2018-12-02T14:10:06.565Z,96.20
2018-12-02T14:12:42.583Z,96.30
2018-12-02T14:15:31.898Z,98.90
2018-12-02T14:18:16.852Z,97.70
2018-12-02T14:20:49.635Z,97.30
2018-12-02T14:23:23.290Z,96.30
2018-12-02T14:25:59.552Z,96.20
2018-12-02T14:29:39.303Z,95.80
2018-12-02T14:32:22.966Z,95.40
2018-12-02T14:35:02.732Z,96.10
2018-12-02T14:37:36.335Z,95.90
2018-12-02T14:40:17.420Z,95.30
2018-12-02T14:42:49.879Z,93.90
2018-12-02T14:45:20.427Z,94.10
2018-12-02T14:47:50.935Z,94.00
2018-12-02T14:50:55.548Z,93.90
2018-12-02T14:53:25.868Z,94.00
2018-12-02T14:56:29.954Z,94.50
2018-12-02T14:59:00.742Z,93.90
2018-12-02T15:01:54.427Z,93.80
2018-12-02T15:04:26.482Z,94.10
2018-12-02T15:07:23.625Z,96.00
2018-12-02T15:09:55.248Z,98.00
2018-12-02T15:12:26.095Z,98.70
2018-12-02T15:15:38.176Z,98.20
2018-12-02T15:18:08.456Z,98.90
2018-12-02T15:20:47.376Z,99.90
2018-12-02T15:23:19.035Z,99.90
2018-12-02T15:26:26.675Z,99.90
2018-12-02T15:28:57.541Z,99.90
2018-12-02T15:31:59.285Z,99.90
2018-12-02T15:34:32.462Z,99.90
2018-12-02T15:37:03.327Z,99.00
2018-12-02T15:40:15.338Z,98.90
2018-12-02T15:42:51.317Z,99.90
2018-12-02T15:46:09.306Z,99.90
2018-12-02T15:48:50.109Z,99.90
2018-12-02T15:51:59.350Z,99.90
2018-12-02T15:54:31.656Z,99.90
2018-12-02T15:57:01.778Z,99.70
2018-12-02T16:02:53.513Z,99.90
2018-12-02T16:05:24.351Z,99.90
2018-12-02T16:07:55.491Z,99.70
2018-12-02T16:10:27.446Z,99.50
2018-12-02T16:13:05.319Z,98.80
2018-12-02T16:15:38.244Z,98.00
2018-12-02T16:18:57.319Z,98.00
2018-12-02T16:21:29.142Z,98.60
2018-12-02T16:24:00.076Z,98.00
2018-12-02T16:26:36.583Z,98.20
2018-12-02T16:29:08.569Z,97.60
2018-12-02T16:32:07.741Z,98.00
2018-12-02T16:34:37.337Z,99.90
2018-12-02T16:37:09.333Z,99.60
2018-12-02T16:40:26.426Z,99.60
2018-12-02T16:42:58.815Z,99.70
2018-12-02T16:45:28.517Z,99.90
2018-12-02T16:48:01.385Z,99.90
2018-12-02T16:50:33.159Z,99.60
2018-12-02T16:53:19.688Z,99.30
2018-12-02T16:56:20.919Z,98.70
2018-12-02T16:59:05.982Z,98.40
2018-12-02T17:02:15.543Z,98.60
2018-12-02T17:04:47.790Z,99.00
2018-12-02T17:07:55.880Z,98.60
2018-12-02T17:10:28.247Z,99.90
2018-12-02T17:13:20.249Z,99.00
2018-12-02T17:16:04.316Z,99.90
2018-12-02T17:19:20.629Z,99.20
2018-12-02T17:21:57.491Z,98.70
2018-12-02T18:11:41.862Z,96.80
2018-12-02T18:14:12.528Z,97.00
2018-12-02T18:19:51.012Z,95.90
2018-12-02T18:23:09.787Z,97.40
2018-12-02T18:25:39.369Z,96.00
2018-12-02T18:28:19.757Z,94.60
2018-12-02T18:30:50.974Z,95.40
2018-12-02T18:33:21.349Z,96.70
2018-12-02T18:36:17.825Z,97.80
2018-12-02T18:47:29.647Z,94.40
2018-12-02T18:50:00.679Z,94.70
2018-12-02T18:58:07.848Z,94.50
2018-12-02T19:00:42.889Z,94.50
2018-12-02T19:03:12.545Z,93.40
2018-12-02T19:08:52.673Z,91.70
2018-12-02T19:12:01.832Z,91.90
2018-12-02T19:14:34.933Z,92.50
2018-12-02T19:17:47.325Z,94.30
2018-12-02T19:20:25.707Z,94.60
2018-12-02T19:23:30.431Z,93.60
2018-12-02T19:26:03.799Z,92.50
2018-12-02T19:28:34.610Z,92.70
2018-12-02T19:31:46.809Z,92.50
2018-12-02T19:34:20.762Z,92.70
2018-12-02T19:36:56.375Z,93.00
2018-12-02T19:43:26.752Z,94.80
2018-12-02T19:46:00.229Z,94.20
2018-12-02T19:48:38.597Z,94.30
2018-12-02T19:51:10.600Z,93.70
2018-12-02T19:56:42.714Z,95.10
2018-12-02T19:59:15.992Z,93.80
2018-12-02T20:02:24.771Z,94.00
2018-12-02T20:04:58.547Z,92.80
2018-12-02T20:08:06.517Z,92.00
2018-12-02T20:10:43.274Z,91.30
2018-12-02T20:13:26.775Z,92.50
2018-12-02T20:16:04.212Z,93.70
2018-12-02T20:18:40.095Z,94.70
2018-12-02T20:24:05.661Z,93.60
2018-12-02T20:26:36.715Z,94.10
2018-12-02T20:29:07.919Z,94.80
2018-12-02T20:32:03.990Z,93.90
2018-12-02T20:34:37.127Z,93.80
2018-12-02T20:39:52.701Z,96.50
2018-12-02T20:42:25.100Z,95.60
2018-12-02T20:44:55.744Z,96.70
2018-12-02T20:47:26.772Z,95.20
2018-12-02T20:49:58.391Z,94.30
2018-12-02T20:52:28.466Z,95.40
2018-12-02T20:54:58.478Z,94.00
2018-12-02T20:57:29.604Z,96.10
2018-12-02T20:59:59.395Z,94.80
2018-12-02T21:03:14.950Z,94.40
2018-12-02T21:05:49.727Z,93.70
2018-12-02T21:08:43.466Z,93.10
2018-12-02T21:11:14.523Z,92.40
2018-12-02T21:13:44.335Z,91.90
2018-12-02T21:16:14.643Z,93.50
2018-12-02T21:18:48.262Z,93.10
2018-12-02T21:21:57.388Z,93.50
2018-12-02T21:24:27.300Z,93.00
2018-12-02T21:27:36.782Z,92.20
2018-12-02T21:30:13.245Z,92.30
2018-12-02T21:33:10.138Z,95.50
2018-12-02T21:35:39.589Z,94.50
2018-12-02T21:38:35.270Z,93.80
2018-12-02T21:41:06.462Z,93.60
2018-12-02T21:43:36.426Z,94.50
2018-12-02T21:46:36.071Z,97.70
2018-12-02T21:49:07.411Z,98.10
2018-12-02T21:52:25.961Z,97.80
2018-12-02T21:54:55.458Z,98.30
2018-12-02T21:58:04.313Z,96.90
2018-12-02T22:00:39.479Z,97.20
2018-12-02T22:03:55.593Z,96.90
2018-12-02T22:06:25.253Z,97.40
2018-12-02T22:09:34.417Z,97.90
2018-12-02T22:12:09.929Z,96.30
2018-12-02T22:15:26.827Z,97.20
2018-12-02T22:17:58.524Z,99.00
2018-12-02T22:21:03.198Z,99.90
2018-12-02T22:23:32.810Z,99.90
2018-12-02T22:26:38.847Z,99.60
2018-12-02T22:29:12.448Z,99.00
2018-12-02T22:32:18.889Z,98.50
2018-12-02T22:34:48.385Z,98.10
2018-12-02T22:37:44.969Z,98.00
2018-12-02T22:40:17.715Z,98.10
2018-12-02T22:43:28.210Z,98.20
2018-12-02T22:45:58.840Z,98.50
2018-12-02T22:49:02.692Z,98.50
2018-12-02T22:51:32.862Z,98.40
2018-12-02T22:54:28.877Z,97.40
2018-12-02T22:56:58.626Z,98.30
2018-12-02T22:59:28.845Z,97.10
2018-12-02T23:02:45.764Z,97.90
2018-12-02T23:05:15.527Z,98.10
2018-12-02T23:07:46.422Z,98.00
2018-12-02T23:10:16.536Z,98.50
2018-12-02T23:12:46.840Z,98.00
2018-12-02T23:15:18.676Z,97.80
2018-12-02T23:18:36.873Z,99.60
2018-12-02T23:21:06.734Z,98.30
2018-12-02T23:25:43.137Z,98.00
2018-12-02T23:28:12.553Z,96.80
2018-12-02T23:30:43.487Z,95.30
2018-12-02T23:34:00.132Z,94.80
2018-12-02T23:36:29.506Z,95.10
2018-12-02T23:55:27.351Z,95.50
2018-12-02T23:57:57.237Z,95.10
